sensor_id;sensor_type;location;lat;lon;timestamp;temperature;humidity
28069;DHT22;15382;47.578;8.086;2023-01-05T00:04:33;8.10;99.90
28069;DHT22;15382;47.578;8.086;2023-01-05T00:14:34;8.10;99.90
28069;DHT22;15382;47.578;8.086;2023-01-05T00:35:02;8.10;99.90
28069;DHT22;15382;47.578;8.086;2023-01-05T00:45:09;8.10;99.90
28069;DHT22;15382;47.578;8.086;2023-01-05T00:55:12;8.00;99.90
28069;DHT22;15382;47.578;8.086;2023-01-05T01:05:13;8.10;99.90
28069;DHT22;15382;47.578;8.086;2023-01-05T01:15:17;8.10;99.90
28069;DHT22;15382;47.578;8.086;2023-01-05T01:25:18;8.20;99.90
28069;DHT22;15382;47.578;8.086;2023-01-05T01:35:20;8.40;99.90
28069;DHT22;15382;47.578;8.086;2023-01-05T01:45:24;8.20;99.90
28069;DHT22;15382;47.578;8.086;2023-01-05T01:55:26;8.40;99.90
28069;DHT22;15382;47.578;8.086;2023-01-05T02:05:28;8.50;99.90
28069;DHT22;15382;47.578;8.086;2023-01-05T02:36:17;8.70;99.90
28069;DHT22;15382;47.578;8.086;2023-01-05T02:46:22;8.80;99.90
28069;DHT22;15382;47.578;8.086;2023-01-05T03:07:02;8.80;99.90
28069;DHT22;15382;47.578;8.086;2023-01-05T03:17:07;8.80;99.90
28069;DHT22;15382;47.578;8.086;2023-01-05T03:27:14;8.80;99.90
28069;DHT22;15382;47.578;8.086;2023-01-05T03:37:49;8.90;99.90
28069;DHT22;15382;47.578;8.086;2023-01-05T03:47:51;8.90;99.90
28069;DHT22;15382;47.578;8.086;2023-01-05T03:57:57;8.90;99.90
28069;DHT22;15382;47.578;8.086;2023-01-05T04:07:59;9.00;99.90
28069;DHT22;15382;47.578;8.086;2023-01-05T04:18:02;9.10;99.90
28069;DHT22;15382;47.578;8.086;2023-01-05T04:28:03;9.10;99.90
28069;DHT22;15382;47.578;8.086;2023-01-05T04:38:04;9.10;99.90
28069;DHT22;15382;47.578;8.086;2023-01-05T04:48:06;9.10;99.90
28069;DHT22;15382;47.578;8.086;2023-01-05T04:58:07;9.10;99.90
28069;DHT22;15382;47.578;8.086;2023-01-05T05:08:12;9.20;99.90
28069;DHT22;15382;47.578;8.086;2023-01-05T05:18:15;9.20;99.90
28069;DHT22;15382;47.578;8.086;2023-01-05T05:28:18;9.30;99.90
28069;DHT22;15382;47.578;8.086;2023-01-05T05:38:19;9.30;99.90
28069;DHT22;15382;47.578;8.086;2023-01-05T05:48:20;9.40;99.90
28069;DHT22;15382;47.578;8.086;2023-01-05T05:58:20;9.60;99.90
28069;DHT22;15382;47.578;8.086;2023-01-05T06:08:22;9.60;99.90
28069;DHT22;15382;47.578;8.086;2023-01-05T06:18:23;9.50;99.90
28069;DHT22;15382;47.578;8.086;2023-01-05T06:28:26;9.50;99.90
28069;DHT22;15382;47.578;8.086;2023-01-05T06:38:27;9.40;99.90
28069;DHT22;15382;47.578;8.086;2023-01-05T06:48:28;9.50;99.90
28069;DHT22;15382;47.578;8.086;2023-01-05T06:58:29;9.50;99.90
28069;DHT22;15382;47.578;8.086;2023-01-05T07:08:30;9.60;99.90
28069;DHT22;15382;47.578;8.086;2023-01-05T07:18:31;9.60;99.90
28069;DHT22;15382;47.578;8.086;2023-01-05T07:28:34;9.70;99.90
28069;DHT22;15382;47.578;8.086;2023-01-05T07:38:36;9.70;99.90
28069;DHT22;15382;47.578;8.086;2023-01-05T07:48:37;9.70;99.90
28069;DHT22;15382;47.578;8.086;2023-01-05T07:58:41;9.70;99.90
28069;DHT22;15382;47.578;8.086;2023-01-05T08:08:43;9.70;99.90
28069;DHT22;15382;47.578;8.086;2023-01-05T08:18:45;9.70;99.90
28069;DHT22;15382;47.578;8.086;2023-01-05T08:28:48;9.70;99.90
28069;DHT22;15382;47.578;8.086;2023-01-05T08:38:54;9.70;99.90
28069;DHT22;15382;47.578;8.086;2023-01-05T08:48:56;9.70;99.90
28069;DHT22;15382;47.578;8.086;2023-01-05T08:58:58;9.80;99.90
28069;DHT22;15382;47.578;8.086;2023-01-05T09:09:03;9.90;99.90
28069;DHT22;15382;47.578;8.086;2023-01-05T09:19:07;10.10;99.90
28069;DHT22;15382;47.578;8.086;2023-01-05T09:29:10;10.40;99.90
28069;DHT22;15382;47.578;8.086;2023-01-05T09:39:11;10.60;99.90
28069;DHT22;15382;47.578;8.086;2023-01-05T09:49:15;10.80;99.90
28069;DHT22;15382;47.578;8.086;2023-01-05T09:59:31;11.60;99.90
28069;DHT22;15382;47.578;8.086;2023-01-05T10:09:36;11.80;99.90
28069;DHT22;15382;47.578;8.086;2023-01-05T10:19:40;11.70;99.90
28069;DHT22;15382;47.578;8.086;2023-01-05T10:29:47;11.60;99.90
28069;DHT22;15382;47.578;8.086;2023-01-05T10:50:49;11.90;99.90
28069;DHT22;15382;47.578;8.086;2023-01-05T11:00:40;11.70;99.90
28069;DHT22;15382;47.578;8.086;2023-01-05T11:10:54;11.60;99.90
28069;DHT22;15382;47.578;8.086;2023-01-05T11:21:09;11.70;99.90
28069;DHT22;15382;47.578;8.086;2023-01-05T11:31:10;11.90;99.90
28069;DHT22;15382;47.578;8.086;2023-01-05T11:41:11;13.00;99.90
28069;DHT22;15382;47.578;8.086;2023-01-05T11:51:32;13.60;99.90
28069;DHT22;15382;47.578;8.086;2023-01-05T12:01:57;13.20;99.90
28069;DHT22;15382;47.578;8.086;2023-01-05T12:12:12;13.80;99.90
28069;DHT22;15382;47.578;8.086;2023-01-05T12:32:53;12.20;99.90
28069;DHT22;15382;47.578;8.086;2023-01-05T12:43:07;12.90;99.90
28069;DHT22;15382;47.578;8.086;2023-01-05T13:04:02;13.10;99.90
28069;DHT22;15382;47.578;8.086;2023-01-05T13:14:20;12.80;99.90
28069;DHT22;15382;47.578;8.086;2023-01-05T13:24:32;12.70;99.90
28069;DHT22;15382;47.578;8.086;2023-01-05T13:55:10;12.50;99.90
28069;DHT22;15382;47.578;8.086;2023-01-05T14:05:27;12.50;99.90
28069;DHT22;15382;47.578;8.086;2023-01-05T14:25:59;12.30;99.90
28069;DHT22;15382;47.578;8.086;2023-01-05T14:36:03;12.30;99.90
28069;DHT22;15382;47.578;8.086;2023-01-05T14:56:24;12.10;99.90
28069;DHT22;15382;47.578;8.086;2023-01-05T15:27:25;11.70;99.90
28069;DHT22;15382;47.578;8.086;2023-01-05T15:37:32;11.50;99.90
28069;DHT22;15382;47.578;8.086;2023-01-05T15:47:38;11.40;99.90
28069;DHT22;15382;47.578;8.086;2023-01-05T15:57:40;11.30;99.90
28069;DHT22;15382;47.578;8.086;2023-01-05T16:17:49;11.10;99.90
28069;DHT22;15382;47.578;8.086;2023-01-05T16:27:54;11.00;99.90
28069;DHT22;15382;47.578;8.086;2023-01-05T16:38:25;10.90;99.90
28069;DHT22;15382;47.578;8.086;2023-01-05T16:58:38;10.70;99.90
28069;DHT22;15382;47.578;8.086;2023-01-05T17:08:39;10.70;99.90
28069;DHT22;15382;47.578;8.086;2023-01-05T17:18:40;10.70;99.90
28069;DHT22;15382;47.578;8.086;2023-01-05T17:28:41;10.70;99.90
28069;DHT22;15382;47.578;8.086;2023-01-05T17:38:43;10.60;99.90
28069;DHT22;15382;47.578;8.086;2023-01-05T17:48:46;10.50;99.90
28069;DHT22;15382;47.578;8.086;2023-01-05T17:58:47;10.50;99.90
28069;DHT22;15382;47.578;8.086;2023-01-05T18:08:48;11.00;99.90
28069;DHT22;15382;47.578;8.086;2023-01-05T18:18:50;11.40;99.90
28069;DHT22;15382;47.578;8.086;2023-01-05T18:28:51;11.50;99.90
28069;DHT22;15382;47.578;8.086;2023-01-05T18:38:56;11.70;99.90
28069;DHT22;15382;47.578;8.086;2023-01-05T18:48:58;11.60;99.90
28069;DHT22;15382;47.578;8.086;2023-01-05T18:58:59;10.80;99.90
28069;DHT22;15382;47.578;8.086;2023-01-05T19:09:01;10.30;99.90
28069;DHT22;15382;47.578;8.086;2023-01-05T19:19:06;9.30;99.90
28069;DHT22;15382;47.578;8.086;2023-01-05T19:29:09;9.10;99.90
28069;DHT22;15382;47.578;8.086;2023-01-05T19:39:16;9.00;99.90
28069;DHT22;15382;47.578;8.086;2023-01-05T19:49:26;8.90;99.90
28069;DHT22;15382;47.578;8.086;2023-01-05T19:59:27;8.60;99.90
28069;DHT22;15382;47.578;8.086;2023-01-05T20:09:32;8.70;99.90
28069;DHT22;15382;47.578;8.086;2023-01-05T20:19:35;8.50;99.90
28069;DHT22;15382;47.578;8.086;2023-01-05T20:29:36;8.40;99.90
28069;DHT22;15382;47.578;8.086;2023-01-05T20:39:41;8.20;99.90
28069;DHT22;15382;47.578;8.086;2023-01-05T20:49:43;7.90;99.90
28069;DHT22;15382;47.578;8.086;2023-01-05T20:59:45;7.80;99.90
28069;DHT22;15382;47.578;8.086;2023-01-05T21:09:49;7.50;99.90
28069;DHT22;15382;47.578;8.086;2023-01-05T21:19:50;7.10;99.90
28069;DHT22;15382;47.578;8.086;2023-01-05T21:29:51;7.10;99.90
28069;DHT22;15382;47.578;8.086;2023-01-05T21:39:51;7.10;99.90
28069;DHT22;15382;47.578;8.086;2023-01-05T21:49:52;6.90;99.90
28069;DHT22;15382;47.578;8.086;2023-01-05T21:59:53;6.90;99.90
28069;DHT22;15382;47.578;8.086;2023-01-05T22:09:54;6.70;99.90
28069;DHT22;15382;47.578;8.086;2023-01-05T22:19:55;6.40;99.90
28069;DHT22;15382;47.578;8.086;2023-01-05T22:29:55;6.40;99.90
28069;DHT22;15382;47.578;8.086;2023-01-05T22:39:56;6.20;99.90
28069;DHT22;15382;47.578;8.086;2023-01-05T22:49:57;5.80;99.90
28069;DHT22;15382;47.578;8.086;2023-01-05T22:59:57;5.70;99.90
28069;DHT22;15382;47.578;8.086;2023-01-05T23:09:59;5.40;99.90
28069;DHT22;15382;47.578;8.086;2023-01-05T23:20:00;5.60;99.90
28069;DHT22;15382;47.578;8.086;2023-01-05T23:30:04;5.50;99.90
28069;DHT22;15382;47.578;8.086;2023-01-05T23:40:06;5.20;99.90
28069;DHT22;15382;47.578;8.086;2023-01-05T23:50:08;5.40;99.90
